sensor_id;sensor_type;location;lat;lon;timestamp;P1;durP1;ratioP1;P2;durP2;ratioP2
14100;SDS011;7127;49.372;8.166;2023-05-08T00:00:10;2.97;;;2.77;;
14100;SDS011;7127;49.372;8.166;2023-05-08T00:02:39;2.90;;;2.70;;
14100;SDS011;7127;49.372;8.166;2023-05-08T00:05:08;3.90;;;3.50;;
14100;SDS011;7127;49.372;8.166;2023-05-08T00:07:35;3.73;;;3.43;;
14100;SDS011;7127;49.372;8.166;2023-05-08T00:10:02;4.57;;;4.13;;
14100;SDS011;7127;49.372;8.166;2023-05-08T00:12:30;4.53;;;4.13;;
14100;SDS011;7127;49.372;8.166;2023-05-08T00:14:57;5.40;;;4.90;;
14100;SDS011;7127;49.372;8.166;2023-05-08T00:17:24;5.07;;;4.57;;
14100;SDS011;7127;49.372;8.166;2023-05-08T00:19:50;4.97;;;4.47;;
14100;SDS011;7127;49.372;8.166;2023-05-08T00:22:19;4.07;;;3.73;;
14100;SDS011;7127;49.372;8.166;2023-05-08T00:24:46;5.70;;;4.77;;
14100;SDS011;7127;49.372;8.166;2023-05-08T00:27:13;5.10;;;4.60;;
14100;SDS011;7127;49.372;8.166;2023-05-08T00:29:40;5.00;;;4.50;;
14100;SDS011;7127;49.372;8.166;2023-05-08T00:32:07;4.60;;;4.10;;
14100;SDS011;7127;49.372;8.166;2023-05-08T00:34:34;3.90;;;3.60;;
14100;SDS011;7127;49.372;8.166;2023-05-08T00:37:01;3.97;;;3.67;;
14100;SDS011;7127;49.372;8.166;2023-05-08T00:39:29;4.77;;;4.03;;
14100;SDS011;7127;49.372;8.166;2023-05-08T00:41:56;4.50;;;4.10;;
14100;SDS011;7127;49.372;8.166;2023-05-08T00:44:23;4.50;;;4.10;;
14100;SDS011;7127;49.372;8.166;2023-05-08T00:46:50;3.87;;;3.57;;
14100;SDS011;7127;49.372;8.166;2023-05-08T00:49:17;4.03;;;3.70;;
14100;SDS011;7127;49.372;8.166;2023-05-08T00:51:45;5.53;;;3.67;;
14100;SDS011;7127;49.372;8.166;2023-05-08T00:54:13;6.00;;;3.83;;
14100;SDS011;7127;49.372;8.166;2023-05-08T00:56:42;4.33;;;3.93;;
14100;SDS011;7127;49.372;8.166;2023-05-08T00:59:10;5.43;;;3.87;;
14100;SDS011;7127;49.372;8.166;2023-05-08T01:01:40;4.30;;;3.90;;
14100;SDS011;7127;49.372;8.166;2023-05-08T01:04:08;4.40;;;4.00;;
14100;SDS011;7127;49.372;8.166;2023-05-08T01:06:35;3.80;;;3.47;;
14100;SDS011;7127;49.372;8.166;2023-05-08T01:09:02;3.80;;;3.50;;
14100;SDS011;7127;49.372;8.166;2023-05-08T01:11:30;3.27;;;2.97;;
14100;SDS011;7127;49.372;8.166;2023-05-08T01:14:19;3.30;;;3.00;;
14100;SDS011;7127;49.372;8.166;2023-05-08T01:16:52;3.60;;;3.30;;
14100;SDS011;7127;49.372;8.166;2023-05-08T01:19:31;4.07;;;3.67;;
14100;SDS011;7127;49.372;8.166;2023-05-08T01:22:28;3.87;;;3.53;;
14100;SDS011;7127;49.372;8.166;2023-05-08T01:25:27;3.00;;;2.70;;
14100;SDS011;7127;49.372;8.166;2023-05-08T01:28:27;3.60;;;2.97;;
14100;SDS011;7127;49.372;8.166;2023-05-08T01:31:13;2.70;;;2.50;;
14100;SDS011;7127;49.372;8.166;2023-05-08T01:33:52;3.13;;;2.80;;
14100;SDS011;7127;49.372;8.166;2023-05-08T01:36:28;3.13;;;2.80;;
14100;SDS011;7127;49.372;8.166;2023-05-08T01:39:04;3.20;;;2.90;;
14100;SDS011;7127;49.372;8.166;2023-05-08T01:41:37;3.30;;;3.00;;
14100;SDS011;7127;49.372;8.166;2023-05-08T01:44:09;3.27;;;2.93;;
14100;SDS011;7127;49.372;8.166;2023-05-08T01:46:38;2.97;;;2.73;;
14100;SDS011;7127;49.372;8.166;2023-05-08T01:49:09;3.10;;;2.80;;
14100;SDS011;7127;49.372;8.166;2023-05-08T01:51:39;3.33;;;3.03;;
14100;SDS011;7127;49.372;8.166;2023-05-08T01:54:11;2.97;;;2.77;;
14100;SDS011;7127;49.372;8.166;2023-05-08T01:56:41;3.00;;;2.80;;
14100;SDS011;7127;49.372;8.166;2023-05-08T01:59:11;3.63;;;3.30;;
14100;SDS011;7127;49.372;8.166;2023-05-08T02:01:40;3.63;;;3.00;;
14100;SDS011;7127;49.372;8.166;2023-05-08T02:04:11;3.07;;;2.73;;
14100;SDS011;7127;49.372;8.166;2023-05-08T02:06:40;3.40;;;3.10;;
14100;SDS011;7127;49.372;8.166;2023-05-08T02:09:07;3.07;;;2.80;;
14100;SDS011;7127;49.372;8.166;2023-05-08T02:11:36;3.37;;;3.07;;
14100;SDS011;7127;49.372;8.166;2023-05-08T02:14:05;4.07;;;2.90;;
14100;SDS011;7127;49.372;8.166;2023-05-08T02:16:33;2.97;;;2.77;;
14100;SDS011;7127;49.372;8.166;2023-05-08T02:19:05;3.70;;;3.03;;
14100;SDS011;7127;49.372;8.166;2023-05-08T02:21:35;3.70;;;2.90;;
14100;SDS011;7127;49.372;8.166;2023-05-08T02:24:04;5.30;;;2.60;;
14100;SDS011;7127;49.372;8.166;2023-05-08T02:26:31;3.20;;;2.90;;
14100;SDS011;7127;49.372;8.166;2023-05-08T02:29:00;4.30;;;2.93;;
14100;SDS011;7127;49.372;8.166;2023-05-08T02:31:28;3.10;;;2.80;;
14100;SDS011;7127;49.372;8.166;2023-05-08T02:33:55;3.70;;;3.40;;
14100;SDS011;7127;49.372;8.166;2023-05-08T02:36:24;3.53;;;3.23;;
14100;SDS011;7127;49.372;8.166;2023-05-08T02:38:55;3.60;;;3.30;;
14100;SDS011;7127;49.372;8.166;2023-05-08T02:41:26;3.30;;;3.00;;
14100;SDS011;7127;49.372;8.166;2023-05-08T02:43:55;3.63;;;3.33;;
14100;SDS011;7127;49.372;8.166;2023-05-08T02:46:24;3.30;;;3.00;;
14100;SDS011;7127;49.372;8.166;2023-05-08T02:48:59;4.90;;;3.50;;
14100;SDS011;7127;49.372;8.166;2023-05-08T02:51:32;4.07;;;3.23;;
14100;SDS011;7127;49.372;8.166;2023-05-08T02:54:09;3.60;;;3.30;;
14100;SDS011;7127;49.372;8.166;2023-05-08T02:56:46;4.40;;;3.13;;
14100;SDS011;7127;49.372;8.166;2023-05-08T02:59:34;4.63;;;3.43;;
14100;SDS011;7127;49.372;8.166;2023-05-08T03:02:05;3.73;;;3.30;;
14100;SDS011;7127;49.372;8.166;2023-05-08T03:04:40;4.07;;;3.67;;
14100;SDS011;7127;49.372;8.166;2023-05-08T03:07:10;3.80;;;3.40;;
14100;SDS011;7127;49.372;8.166;2023-05-08T03:09:42;4.43;;;3.90;;
14100;SDS011;7127;49.372;8.166;2023-05-08T03:12:13;4.50;;;3.70;;
14100;SDS011;7127;49.372;8.166;2023-05-08T03:14:43;4.33;;;3.70;;
14100;SDS011;7127;49.372;8.166;2023-05-08T03:17:15;4.20;;;3.80;;
14100;SDS011;7127;49.372;8.166;2023-05-08T03:19:46;4.20;;;3.80;;
14100;SDS011;7127;49.372;8.166;2023-05-08T03:22:17;3.87;;;3.57;;
14100;SDS011;7127;49.372;8.166;2023-05-08T03:24:46;4.97;;;4.40;;
14100;SDS011;7127;49.372;8.166;2023-05-08T03:27:15;4.37;;;3.80;;
14100;SDS011;7127;49.372;8.166;2023-05-08T03:29:42;4.37;;;3.93;;
14100;SDS011;7127;49.372;8.166;2023-05-08T03:32:10;3.90;;;3.60;;
14100;SDS011;7127;49.372;8.166;2023-05-08T03:34:39;4.67;;;3.77;;
14100;SDS011;7127;49.372;8.166;2023-05-08T03:37:06;4.07;;;3.60;;
14100;SDS011;7127;49.372;8.166;2023-05-08T03:39:33;4.57;;;3.87;;
14100;SDS011;7127;49.372;8.166;2023-05-08T03:42:02;4.13;;;3.30;;
14100;SDS011;7127;49.372;8.166;2023-05-08T03:44:29;3.23;;;2.90;;
14100;SDS011;7127;49.372;8.166;2023-05-08T03:46:57;3.43;;;3.13;;
14100;SDS011;7127;49.372;8.166;2023-05-08T03:49:25;4.37;;;3.43;;
14100;SDS011;7127;49.372;8.166;2023-05-08T03:51:55;3.63;;;3.10;;
14100;SDS011;7127;49.372;8.166;2023-05-08T03:54:21;3.33;;;3.00;;
14100;SDS011;7127;49.372;8.166;2023-05-08T03:56:50;4.00;;;2.80;;
14100;SDS011;7127;49.372;8.166;2023-05-08T03:59:23;2.80;;;2.50;;
14100;SDS011;7127;49.372;8.166;2023-05-08T04:01:57;2.50;;;2.30;;
14100;SDS011;7127;49.372;8.166;2023-05-08T04:04:37;2.40;;;2.20;;
14100;SDS011;7127;49.372;8.166;2023-05-08T04:07:06;3.10;;;2.80;;
14100;SDS011;7127;49.372;8.166;2023-05-08T04:09:38;4.27;;;2.60;;
14100;SDS011;7127;49.372;8.166;2023-05-08T04:12:12;2.90;;;2.70;;
14100;SDS011;7127;49.372;8.166;2023-05-08T04:14:46;3.70;;;2.73;;
14100;SDS011;7127;49.372;8.166;2023-05-08T04:17:16;3.43;;;2.83;;
14100;SDS011;7127;49.372;8.166;2023-05-08T04:19:51;3.10;;;2.57;;
14100;SDS011;7127;49.372;8.166;2023-05-08T04:22:24;2.80;;;2.60;;
14100;SDS011;7127;49.372;8.166;2023-05-08T04:24:52;2.60;;;2.40;;
14100;SDS011;7127;49.372;8.166;2023-05-08T04:27:21;3.77;;;2.50;;
14100;SDS011;7127;49.372;8.166;2023-05-08T04:29:49;2.33;;;2.13;;
14100;SDS011;7127;49.372;8.166;2023-05-08T04:32:16;2.47;;;2.27;;
14100;SDS011;7127;49.372;8.166;2023-05-08T04:34:43;2.13;;;2.00;;
14100;SDS011;7127;49.372;8.166;2023-05-08T04:37:20;2.43;;;2.23;;
14100;SDS011;7127;49.372;8.166;2023-05-08T04:39:49;2.60;;;2.40;;
14100;SDS011;7127;49.372;8.166;2023-05-08T04:42:16;2.50;;;2.30;;
14100;SDS011;7127;49.372;8.166;2023-05-08T04:44:43;2.53;;;2.10;;
14100;SDS011;7127;49.372;8.166;2023-05-08T04:47:12;2.93;;;2.60;;
14100;SDS011;7127;49.372;8.166;2023-05-08T04:49:42;2.83;;;2.57;;
14100;SDS011;7127;49.372;8.166;2023-05-08T04:52:09;2.90;;;2.70;;
14100;SDS011;7127;49.372;8.166;2023-05-08T04:54:37;3.13;;;2.87;;
14100;SDS011;7127;49.372;8.166;2023-05-08T04:57:03;3.53;;;3.23;;
14100;SDS011;7127;49.372;8.166;2023-05-08T04:59:31;3.03;;;2.80;;
14100;SDS011;7127;49.372;8.166;2023-05-08T05:01:58;3.40;;;3.10;;
14100;SDS011;7127;49.372;8.166;2023-05-08T05:04:27;3.90;;;3.60;;
14100;SDS011;7127;49.372;8.166;2023-05-08T05:06:54;4.00;;;3.70;;
14100;SDS011;7127;49.372;8.166;2023-05-08T05:09:21;4.40;;;4.00;;
14100;SDS011;7127;49.372;8.166;2023-05-08T05:11:49;3.97;;;3.63;;
14100;SDS011;7127;49.372;8.166;2023-05-08T05:14:16;4.20;;;3.90;;
14100;SDS011;7127;49.372;8.166;2023-05-08T05:16:43;3.87;;;3.57;;
14100;SDS011;7127;49.372;8.166;2023-05-08T05:19:11;3.80;;;3.50;;
14100;SDS011;7127;49.372;8.166;2023-05-08T05:21:39;4.57;;;3.33;;
14100;SDS011;7127;49.372;8.166;2023-05-08T05:24:06;4.37;;;3.97;;
14100;SDS011;7127;49.372;8.166;2023-05-08T05:26:33;4.20;;;3.73;;
14100;SDS011;7127;49.372;8.166;2023-05-08T05:29:00;3.97;;;3.57;;
14100;SDS011;7127;49.372;8.166;2023-05-08T05:31:27;4.37;;;3.97;;
14100;SDS011;7127;49.372;8.166;2023-05-08T05:33:54;3.57;;;3.27;;
14100;SDS011;7127;49.372;8.166;2023-05-08T05:36:21;3.97;;;3.57;;
14100;SDS011;7127;49.372;8.166;2023-05-08T05:38:49;4.57;;;3.77;;
14100;SDS011;7127;49.372;8.166;2023-05-08T05:41:16;4.47;;;4.07;;
14100;SDS011;7127;49.372;8.166;2023-05-08T05:43:43;4.37;;;3.97;;
14100;SDS011;7127;49.372;8.166;2023-05-08T05:46:09;4.43;;;4.07;;
14100;SDS011;7127;49.372;8.166;2023-05-08T05:48:36;4.67;;;3.97;;
14100;SDS011;7127;49.372;8.166;2023-05-08T05:51:03;4.03;;;3.73;;
14100;SDS011;7127;49.372;8.166;2023-05-08T05:53:30;4.03;;;3.43;;
14100;SDS011;7127;49.372;8.166;2023-05-08T05:55:58;3.90;;;3.57;;
14100;SDS011;7127;49.372;8.166;2023-05-08T05:58:25;4.07;;;3.67;;
14100;SDS011;7127;49.372;8.166;2023-05-08T06:00:53;4.40;;;4.00;;
14100;SDS011;7127;49.372;8.166;2023-05-08T06:03:21;4.17;;;3.87;;
14100;SDS011;7127;49.372;8.166;2023-05-08T06:05:48;4.37;;;3.97;;
14100;SDS011;7127;49.372;8.166;2023-05-08T06:08:15;4.30;;;3.93;;
14100;SDS011;7127;49.372;8.166;2023-05-08T06:10:43;4.50;;;4.10;;
14100;SDS011;7127;49.372;8.166;2023-05-08T06:13:11;4.17;;;3.77;;
14100;SDS011;7127;49.372;8.166;2023-05-08T06:15:38;4.20;;;3.73;;
14100;SDS011;7127;49.372;8.166;2023-05-08T06:18:05;4.00;;;3.70;;
14100;SDS011;7127;49.372;8.166;2023-05-08T06:20:31;3.80;;;3.50;;
14100;SDS011;7127;49.372;8.166;2023-05-08T06:22:58;4.17;;;3.87;;
14100;SDS011;7127;49.372;8.166;2023-05-08T06:25:25;3.90;;;3.60;;
14100;SDS011;7127;49.372;8.166;2023-05-08T06:27:53;4.53;;;4.13;;
14100;SDS011;7127;49.372;8.166;2023-05-08T06:30:21;4.50;;;4.10;;
14100;SDS011;7127;49.372;8.166;2023-05-08T06:32:48;8.03;;;3.93;;
14100;SDS011;7127;49.372;8.166;2023-05-08T06:35:15;4.33;;;3.90;;
14100;SDS011;7127;49.372;8.166;2023-05-08T06:37:43;4.30;;;4.00;;
14100;SDS011;7127;49.372;8.166;2023-05-08T06:40:11;4.60;;;4.20;;
14100;SDS011;7127;49.372;8.166;2023-05-08T06:42:39;4.03;;;3.70;;
14100;SDS011;7127;49.372;8.166;2023-05-08T06:45:06;4.10;;;3.77;;
14100;SDS011;7127;49.372;8.166;2023-05-08T06:47:35;4.27;;;3.87;;
14100;SDS011;7127;49.372;8.166;2023-05-08T06:50:02;4.40;;;4.00;;
14100;SDS011;7127;49.372;8.166;2023-05-08T06:52:29;4.40;;;3.80;;
14100;SDS011;7127;49.372;8.166;2023-05-08T06:54:56;4.23;;;3.93;;
14100;SDS011;7127;49.372;8.166;2023-05-08T06:57:23;3.70;;;3.40;;
14100;SDS011;7127;49.372;8.166;2023-05-08T06:59:51;4.60;;;4.20;;
14100;SDS011;7127;49.372;8.166;2023-05-08T07:02:18;5.53;;;4.23;;
14100;SDS011;7127;49.372;8.166;2023-05-08T07:04:46;4.37;;;3.97;;
14100;SDS011;7127;49.372;8.166;2023-05-08T07:07:13;4.40;;;4.00;;
14100;SDS011;7127;49.372;8.166;2023-05-08T07:09:40;4.57;;;4.17;;
14100;SDS011;7127;49.372;8.166;2023-05-08T07:12:07;3.90;;;3.60;;
14100;SDS011;7127;49.372;8.166;2023-05-08T07:14:34;4.20;;;3.80;;
14100;SDS011;7127;49.372;8.166;2023-05-08T07:17:02;4.20;;;3.83;;
14100;SDS011;7127;49.372;8.166;2023-05-08T07:19:31;4.67;;;3.87;;
14100;SDS011;7127;49.372;8.166;2023-05-08T07:22:00;4.20;;;3.80;;
14100;SDS011;7127;49.372;8.166;2023-05-08T07:24:27;4.20;;;3.80;;
14100;SDS011;7127;49.372;8.166;2023-05-08T07:26:54;4.00;;;3.70;;
14100;SDS011;7127;49.372;8.166;2023-05-08T07:29:21;3.97;;;3.30;;
14100;SDS011;7127;49.372;8.166;2023-05-08T07:31:48;4.33;;;3.97;;
14100;SDS011;7127;49.372;8.166;2023-05-08T07:34:16;4.10;;;3.73;;
14100;SDS011;7127;49.372;8.166;2023-05-08T07:36:42;3.80;;;3.50;;
14100;SDS011;7127;49.372;8.166;2023-05-08T07:39:11;3.90;;;3.60;;
14100;SDS011;7127;49.372;8.166;2023-05-08T07:41:38;3.90;;;3.50;;
14100;SDS011;7127;49.372;8.166;2023-05-08T07:44:05;3.87;;;3.57;;
14100;SDS011;7127;49.372;8.166;2023-05-08T07:46:33;3.47;;;3.17;;
14100;SDS011;7127;49.372;8.166;2023-05-08T07:49:00;4.33;;;3.93;;
14100;SDS011;7127;49.372;8.166;2023-05-08T07:51:33;4.00;;;3.60;;
14100;SDS011;7127;49.372;8.166;2023-05-08T07:54:27;4.40;;;4.00;;
14100;SDS011;7127;49.372;8.166;2023-05-08T07:56:53;4.87;;;4.47;;
14100;SDS011;7127;49.372;8.166;2023-05-08T07:59:20;4.50;;;4.10;;
14100;SDS011;7127;49.372;8.166;2023-05-08T08:01:47;4.67;;;4.23;;
14100;SDS011;7127;49.372;8.166;2023-05-08T08:04:14;4.20;;;3.67;;
14100;SDS011;7127;49.372;8.166;2023-05-08T08:06:41;4.33;;;3.93;;
14100;SDS011;7127;49.372;8.166;2023-05-08T08:09:08;4.10;;;3.80;;
14100;SDS011;7127;49.372;8.166;2023-05-08T08:11:37;5.00;;;3.87;;
14100;SDS011;7127;49.372;8.166;2023-05-08T08:14:03;4.03;;;3.73;;
14100;SDS011;7127;49.372;8.166;2023-05-08T08:16:30;4.77;;;3.90;;
14100;SDS011;7127;49.372;8.166;2023-05-08T08:18:57;4.77;;;4.27;;
14100;SDS011;7127;49.372;8.166;2023-05-08T08:21:24;4.10;;;3.80;;
14100;SDS011;7127;49.372;8.166;2023-05-08T08:23:52;4.93;;;4.50;;
14100;SDS011;7127;49.372;8.166;2023-05-08T08:26:20;4.57;;;4.17;;
14100;SDS011;7127;49.372;8.166;2023-05-08T08:28:48;4.30;;;3.90;;
14100;SDS011;7127;49.372;8.166;2023-05-08T08:31:15;3.93;;;3.60;;
14100;SDS011;7127;49.372;8.166;2023-05-08T08:33:43;4.20;;;3.87;;
14100;SDS011;7127;49.372;8.166;2023-05-08T08:36:14;4.90;;;4.40;;
14100;SDS011;7127;49.372;8.166;2023-05-08T08:38:41;4.87;;;4.47;;
14100;SDS011;7127;49.372;8.166;2023-05-08T08:41:08;6.43;;;4.30;;
14100;SDS011;7127;49.372;8.166;2023-05-08T08:43:35;4.50;;;4.20;;
14100;SDS011;7127;49.372;8.166;2023-05-08T08:46:10;4.07;;;3.77;;
14100;SDS011;7127;49.372;8.166;2023-05-08T08:48:39;3.33;;;3.10;;
14100;SDS011;7127;49.372;8.166;2023-05-08T08:51:11;3.53;;;3.00;;
14100;SDS011;7127;49.372;8.166;2023-05-08T08:53:42;3.53;;;3.20;;
14100;SDS011;7127;49.372;8.166;2023-05-08T08:56:11;5.90;;;3.60;;
14100;SDS011;7127;49.372;8.166;2023-05-08T08:58:43;3.80;;;3.50;;
14100;SDS011;7127;49.372;8.166;2023-05-08T09:01:20;4.87;;;4.13;;
14100;SDS011;7127;49.372;8.166;2023-05-08T09:03:48;4.20;;;3.80;;
14100;SDS011;7127;49.372;8.166;2023-05-08T09:06:16;5.07;;;4.67;;
14100;SDS011;7127;49.372;8.166;2023-05-08T09:08:43;4.93;;;4.53;;
14100;SDS011;7127;49.372;8.166;2023-05-08T09:11:10;4.90;;;4.40;;
14100;SDS011;7127;49.372;8.166;2023-05-08T09:13:37;6.27;;;5.00;;
14100;SDS011;7127;49.372;8.166;2023-05-08T09:16:05;4.90;;;4.50;;
14100;SDS011;7127;49.372;8.166;2023-05-08T09:18:34;5.00;;;4.57;;
14100;SDS011;7127;49.372;8.166;2023-05-08T09:21:02;4.80;;;4.40;;
14100;SDS011;7127;49.372;8.166;2023-05-08T09:23:31;5.77;;;4.80;;
14100;SDS011;7127;49.372;8.166;2023-05-08T09:26:00;4.70;;;4.30;;
14100;SDS011;7127;49.372;8.166;2023-05-08T09:28:27;5.20;;;4.73;;
14100;SDS011;7127;49.372;8.166;2023-05-08T09:30:55;4.83;;;4.43;;
14100;SDS011;7127;49.372;8.166;2023-05-08T09:33:22;5.00;;;4.60;;
14100;SDS011;7127;49.372;8.166;2023-05-08T09:35:52;4.70;;;4.30;;
14100;SDS011;7127;49.372;8.166;2023-05-08T09:38:32;6.23;;;5.73;;
14100;SDS011;7127;49.372;8.166;2023-05-08T09:41:08;6.33;;;5.73;;
14100;SDS011;7127;49.372;8.166;2023-05-08T09:43:36;5.43;;;5.03;;
14100;SDS011;7127;49.372;8.166;2023-05-08T09:46:19;5.17;;;4.70;;
14100;SDS011;7127;49.372;8.166;2023-05-08T09:48:48;5.90;;;5.40;;
14100;SDS011;7127;49.372;8.166;2023-05-08T09:51:17;4.90;;;4.50;;
14100;SDS011;7127;49.372;8.166;2023-05-08T09:53:45;5.53;;;5.03;;
14100;SDS011;7127;49.372;8.166;2023-05-08T09:56:15;6.50;;;5.93;;
14100;SDS011;7127;49.372;8.166;2023-05-08T09:58:53;5.90;;;5.40;;
14100;SDS011;7127;49.372;8.166;2023-05-08T10:01:28;5.00;;;4.60;;
14100;SDS011;7127;49.372;8.166;2023-05-08T10:03:56;5.07;;;4.67;;
14100;SDS011;7127;49.372;8.166;2023-05-08T10:06:25;6.77;;;6.17;;
14100;SDS011;7127;49.372;8.166;2023-05-08T10:09:11;5.80;;;5.30;;
14100;SDS011;7127;49.372;8.166;2023-05-08T10:11:39;5.30;;;4.80;;
14100;SDS011;7127;49.372;8.166;2023-05-08T10:14:07;6.63;;;5.97;;
14100;SDS011;7127;49.372;8.166;2023-05-08T10:16:35;5.93;;;5.37;;
14100;SDS011;7127;49.372;8.166;2023-05-08T10:19:11;5.90;;;5.40;;
14100;SDS011;7127;49.372;8.166;2023-05-08T10:21:41;6.60;;;6.00;;
14100;SDS011;7127;49.372;8.166;2023-05-08T10:32:09;6.20;;;5.70;;
14100;SDS011;7127;49.372;8.166;2023-05-08T10:43:07;7.43;;;6.73;;
14100;SDS011;7127;49.372;8.166;2023-05-08T10:45:35;8.67;;;7.57;;
14100;SDS011;7127;49.372;8.166;2023-05-08T10:48:03;8.87;;;8.07;;
14100;SDS011;7127;49.372;8.166;2023-05-08T10:50:46;8.30;;;7.37;;
14100;SDS011;7127;49.372;8.166;2023-05-08T10:53:24;9.00;;;8.10;;
14100;SDS011;7127;49.372;8.166;2023-05-08T10:56:00;7.90;;;7.20;;
14100;SDS011;7127;49.372;8.166;2023-05-08T10:58:29;9.20;;;8.30;;
14100;SDS011;7127;49.372;8.166;2023-05-08T11:01:10;9.17;;;8.27;;
14100;SDS011;7127;49.372;8.166;2023-05-08T11:03:39;8.40;;;7.50;;
14100;SDS011;7127;49.372;8.166;2023-05-08T11:06:07;7.90;;;7.17;;
14100;SDS011;7127;49.372;8.166;2023-05-08T11:08:41;8.10;;;7.30;;
14100;SDS011;7127;49.372;8.166;2023-05-08T11:11:13;6.80;;;6.20;;
14100;SDS011;7127;49.372;8.166;2023-05-08T11:13:49;7.40;;;6.70;;
14100;SDS011;7127;49.372;8.166;2023-05-08T11:19:20;6.77;;;6.10;;
14100;SDS011;7127;49.372;8.166;2023-05-08T11:24:46;6.97;;;6.33;;
14100;SDS011;7127;49.372;8.166;2023-05-08T11:27:14;6.97;;;6.37;;
14100;SDS011;7127;49.372;8.166;2023-05-08T11:29:42;7.60;;;7.00;;
14100;SDS011;7127;49.372;8.166;2023-05-08T11:32:10;7.10;;;6.47;;
14100;SDS011;7127;49.372;8.166;2023-05-08T11:34:46;6.47;;;5.83;;
14100;SDS011;7127;49.372;8.166;2023-05-08T11:37:16;6.33;;;5.73;;
14100;SDS011;7127;49.372;8.166;2023-05-08T11:39:44;6.97;;;6.37;;
14100;SDS011;7127;49.372;8.166;2023-05-08T11:42:32;6.33;;;5.83;;
14100;SDS011;7127;49.372;8.166;2023-05-08T11:45:03;5.77;;;5.27;;
14100;SDS011;7127;49.372;8.166;2023-05-08T11:47:32;6.23;;;5.30;;
14100;SDS011;7127;49.372;8.166;2023-05-08T11:50:03;5.73;;;5.23;;
14100;SDS011;7127;49.372;8.166;2023-05-08T11:52:31;6.30;;;5.70;;
14100;SDS011;7127;49.372;8.166;2023-05-08T11:55:00;5.67;;;5.17;;
14100;SDS011;7127;49.372;8.166;2023-05-08T11:57:29;5.67;;;5.27;;
14100;SDS011;7127;49.372;8.166;2023-05-08T11:59:57;5.33;;;4.93;;
14100;SDS011;7127;49.372;8.166;2023-05-08T12:05:25;6.00;;;5.50;;
14100;SDS011;7127;49.372;8.166;2023-05-08T12:07:52;5.57;;;5.07;;
14100;SDS011;7127;49.372;8.166;2023-05-08T12:10:20;5.80;;;5.30;;
14100;SDS011;7127;49.372;8.166;2023-05-08T12:12:46;5.67;;;5.17;;
14100;SDS011;7127;49.372;8.166;2023-05-08T12:15:13;5.60;;;5.10;;
14100;SDS011;7127;49.372;8.166;2023-05-08T12:17:41;5.00;;;4.60;;
14100;SDS011;7127;49.372;8.166;2023-05-08T12:20:10;6.40;;;5.80;;
14100;SDS011;7127;49.372;8.166;2023-05-08T12:22:38;5.87;;;5.37;;
14100;SDS011;7127;49.372;8.166;2023-05-08T12:25:05;5.60;;;5.10;;
14100;SDS011;7127;49.372;8.166;2023-05-08T12:27:35;7.07;;;6.47;;
14100;SDS011;7127;49.372;8.166;2023-05-08T12:30:06;6.87;;;6.17;;
14100;SDS011;7127;49.372;8.166;2023-05-08T12:32:35;7.43;;;6.73;;
14100;SDS011;7127;49.372;8.166;2023-05-08T12:35:03;7.13;;;6.53;;
14100;SDS011;7127;49.372;8.166;2023-05-08T12:37:33;7.23;;;6.53;;
14100;SDS011;7127;49.372;8.166;2023-05-08T12:40:00;6.37;;;5.77;;
14100;SDS011;7127;49.372;8.166;2023-05-08T12:45:17;5.83;;;5.33;;
14100;SDS011;7127;49.372;8.166;2023-05-08T12:47:45;6.93;;;5.67;;
14100;SDS011;7127;49.372;8.166;2023-05-08T12:50:13;8.00;;;7.20;;
14100;SDS011;7127;49.372;8.166;2023-05-08T12:52:42;7.70;;;7.00;;
14100;SDS011;7127;49.372;8.166;2023-05-08T12:55:19;7.30;;;6.60;;
14100;SDS011;7127;49.372;8.166;2023-05-08T12:57:48;6.33;;;5.83;;
14100;SDS011;7127;49.372;8.166;2023-05-08T13:00:16;8.43;;;7.63;;
14100;SDS011;7127;49.372;8.166;2023-05-08T13:02:50;8.40;;;7.60;;
14100;SDS011;7127;49.372;8.166;2023-05-08T13:05:18;7.27;;;6.67;;
14100;SDS011;7127;49.372;8.166;2023-05-08T13:07:50;7.57;;;6.87;;
14100;SDS011;7127;49.372;8.166;2023-05-08T13:10:17;8.37;;;7.53;;
14100;SDS011;7127;49.372;8.166;2023-05-08T13:12:44;7.77;;;7.07;;
14100;SDS011;7127;49.372;8.166;2023-05-08T13:15:11;6.87;;;6.27;;
14100;SDS011;7127;49.372;8.166;2023-05-08T13:17:38;7.00;;;6.40;;
14100;SDS011;7127;49.372;8.166;2023-05-08T13:20:05;9.57;;;8.67;;
14100;SDS011;7127;49.372;8.166;2023-05-08T13:22:33;7.97;;;7.17;;
14100;SDS011;7127;49.372;8.166;2023-05-08T13:25:01;7.57;;;6.87;;
14100;SDS011;7127;49.372;8.166;2023-05-08T13:27:28;8.60;;;7.47;;
14100;SDS011;7127;49.372;8.166;2023-05-08T13:29:55;7.67;;;6.97;;
14100;SDS011;7127;49.372;8.166;2023-05-08T13:32:22;7.17;;;6.47;;
14100;SDS011;7127;49.372;8.166;2023-05-08T13:34:48;7.87;;;7.17;;
14100;SDS011;7127;49.372;8.166;2023-05-08T13:37:15;6.97;;;6.27;;
14100;SDS011;7127;49.372;8.166;2023-05-08T13:39:42;7.37;;;6.70;;
14100;SDS011;7127;49.372;8.166;2023-05-08T13:42:10;8.07;;;6.77;;
14100;SDS011;7127;49.372;8.166;2023-05-08T13:44:37;7.33;;;6.63;;
14100;SDS011;7127;49.372;8.166;2023-05-08T13:47:04;6.60;;;6.00;;
14100;SDS011;7127;49.372;8.166;2023-05-08T13:49:31;7.77;;;7.07;;
14100;SDS011;7127;49.372;8.166;2023-05-08T13:51:58;6.93;;;6.23;;
14100;SDS011;7127;49.372;8.166;2023-05-08T13:54:25;5.47;;;4.97;;
14100;SDS011;7127;49.372;8.166;2023-05-08T13:56:52;5.70;;;5.20;;
14100;SDS011;7127;49.372;8.166;2023-05-08T13:59:20;5.83;;;5.33;;
14100;SDS011;7127;49.372;8.166;2023-05-08T14:01:47;6.70;;;6.10;;
14100;SDS011;7127;49.372;8.166;2023-05-08T14:04:14;7.83;;;7.13;;
14100;SDS011;7127;49.372;8.166;2023-05-08T14:06:41;6.23;;;5.67;;
14100;SDS011;7127;49.372;8.166;2023-05-08T14:09:07;6.13;;;5.57;;
14100;SDS011;7127;49.372;8.166;2023-05-08T14:11:34;5.97;;;5.47;;
14100;SDS011;7127;49.372;8.166;2023-05-08T14:14:01;6.13;;;5.63;;
14100;SDS011;7127;49.372;8.166;2023-05-08T14:16:31;7.00;;;6.30;;
14100;SDS011;7127;49.372;8.166;2023-05-08T14:18:58;6.17;;;5.67;;
14100;SDS011;7127;49.372;8.166;2023-05-08T14:21:25;6.87;;;6.27;;
14100;SDS011;7127;49.372;8.166;2023-05-08T14:23:52;6.03;;;5.43;;
14100;SDS011;7127;49.372;8.166;2023-05-08T14:26:19;7.13;;;6.43;;
14100;SDS011;7127;49.372;8.166;2023-05-08T14:28:46;6.77;;;6.27;;
14100;SDS011;7127;49.372;8.166;2023-05-08T14:31:13;6.27;;;5.77;;
14100;SDS011;7127;49.372;8.166;2023-05-08T14:33:41;5.97;;;5.47;;
14100;SDS011;7127;49.372;8.166;2023-05-08T14:36:08;6.73;;;6.03;;
14100;SDS011;7127;49.372;8.166;2023-05-08T14:38:35;7.40;;;6.40;;
14100;SDS011;7127;49.372;8.166;2023-05-08T14:41:02;7.43;;;6.07;;
14100;SDS011;7127;49.372;8.166;2023-05-08T14:43:29;5.53;;;4.88;;
14100;SDS011;7127;49.372;8.166;2023-05-08T14:45:56;5.20;;;4.75;;
14100;SDS011;7127;49.372;8.166;2023-05-08T14:48:22;7.33;;;6.73;;
14100;SDS011;7127;49.372;8.166;2023-05-08T14:50:52;7.05;;;6.35;;
14100;SDS011;7127;49.372;8.166;2023-05-08T14:53:19;6.90;;;6.30;;
14100;SDS011;7127;49.372;8.166;2023-05-08T14:55:47;7.13;;;6.53;;
14100;SDS011;7127;49.372;8.166;2023-05-08T14:58:14;5.77;;;5.33;;
14100;SDS011;7127;49.372;8.166;2023-05-08T15:00:41;5.38;;;4.97;;
14100;SDS011;7127;49.372;8.166;2023-05-08T15:03:07;5.78;;;5.20;;
14100;SDS011;7127;49.372;8.166;2023-05-08T15:05:34;6.13;;;5.63;;
14100;SDS011;7127;49.372;8.166;2023-05-08T15:08:03;5.63;;;5.23;;
14100;SDS011;7127;49.372;8.166;2023-05-08T15:10:30;7.00;;;6.40;;
14100;SDS011;7127;49.372;8.166;2023-05-08T15:12:57;6.20;;;5.70;;
14100;SDS011;7127;49.372;8.166;2023-05-08T15:15:24;6.17;;;5.47;;
14100;SDS011;7127;49.372;8.166;2023-05-08T15:17:51;5.87;;;5.33;;
14100;SDS011;7127;49.372;8.166;2023-05-08T15:20:18;5.13;;;4.63;;
14100;SDS011;7127;49.372;8.166;2023-05-08T15:22:45;5.90;;;5.40;;
14100;SDS011;7127;49.372;8.166;2023-05-08T15:25:14;5.83;;;5.33;;
14100;SDS011;7127;49.372;8.166;2023-05-08T15:27:41;5.47;;;4.93;;
14100;SDS011;7127;49.372;8.166;2023-05-08T15:30:08;6.03;;;5.43;;
14100;SDS011;7127;49.372;8.166;2023-05-08T15:32:35;4.93;;;4.53;;
14100;SDS011;7127;49.372;8.166;2023-05-08T15:35:04;5.27;;;4.77;;
14100;SDS011;7127;49.372;8.166;2023-05-08T15:37:31;5.87;;;5.37;;
14100;SDS011;7127;49.372;8.166;2023-05-08T15:39:59;5.50;;;5.00;;